Terminal Aerodrome Forecast
Issued by NWS

Home | Current Version | Previous Version | Text Only | Print | Product List | Glossary On
Versions: 1 2 3 4 5 6 7 8 9 10 11 12 13 14
000
FTUS45 KVEF 012300
TAFEED
TAF
KEED 012320Z 0200/0224 03009KT P6SM BKN250
     FM020300 29007KT P6SM BKN250
     FM021900 36007KT P6SM BKN250=

USA.gov is the U.S. government's official web portal to all federal, state and local government web resources and services.